createdAt,value
2022-12-16T00:01:47.727Z,76.15
2022-12-16T00:04:50.332Z,76.32
2022-12-16T00:07:55.370Z,76.12
2022-12-16T00:10:59.882Z,76.29
2022-12-16T00:14:02.899Z,76.12
2022-12-16T00:17:05.458Z,76.28
2022-12-16T00:20:09.916Z,76.69
2022-12-16T00:23:14.256Z,76.87
2022-12-16T00:26:16.878Z,76.66
2022-12-16T00:29:19.482Z,77.35
2022-12-16T00:32:22.086Z,77.58
2022-12-16T00:35:24.663Z,76.96
2022-12-16T00:38:28.658Z,76.93
2022-12-16T00:41:31.282Z,77.62
2022-12-16T00:44:33.923Z,77.19
2022-12-16T00:47:39.703Z,78.67
2022-12-16T00:50:47.085Z,77.80
2022-12-16T00:53:51.004Z,77.93
2022-12-16T00:56:53.435Z,78.34
2022-12-16T00:59:56.618Z,78.08
2022-12-16T01:02:59.433Z,78.45
2022-12-16T01:06:02.164Z,78.55
2022-12-16T01:09:06.257Z,78.24
2022-12-16T01:12:08.949Z,78.24
2022-12-16T01:15:14.650Z,78.41
2022-12-16T01:18:17.540Z,78.35
2022-12-16T01:21:20.122Z,77.97
2022-12-16T01:24:24.147Z,77.75
2022-12-16T01:27:26.996Z,77.64
2022-12-16T01:30:29.827Z,77.44
2022-12-16T01:33:34.047Z,77.67
2022-12-16T01:36:37.113Z,76.84
2022-12-16T01:39:41.049Z,77.14
2022-12-16T01:42:44.557Z,77.18
2022-12-16T01:45:47.235Z,77.80
2022-12-16T01:48:52.508Z,78.09
2022-12-16T01:51:58.930Z,77.26
2022-12-16T01:55:08.117Z,77.35
2022-12-16T01:58:13.795Z,77.73
2022-12-16T02:01:17.783Z,77.86
2022-12-16T02:04:20.535Z,77.80
2022-12-16T02:07:23.118Z,77.74
2022-12-16T02:10:34.224Z,78.06
2022-12-16T02:13:45.144Z,76.95
2022-12-16T02:16:53.143Z,77.46
2022-12-16T02:20:13.356Z,77.23
2022-12-16T02:23:36.100Z,76.92
2022-12-16T02:27:21.007Z,76.79
2022-12-16T02:30:42.026Z,76.76
2022-12-16T02:33:56.514Z,76.74
2022-12-16T02:37:07.580Z,76.96
2022-12-16T02:40:17.748Z,76.99
2022-12-16T02:43:28.081Z,77.17
2022-12-16T02:46:33.157Z,76.79
2022-12-16T02:49:49.585Z,76.86
2022-12-16T02:52:54.277Z,76.38
2022-12-16T02:56:01.352Z,76.48
2022-12-16T02:59:11.881Z,76.97
2022-12-16T03:02:20.286Z,76.76
2022-12-16T03:05:27.294Z,77.08
2022-12-16T03:08:33.989Z,77.42
2022-12-16T03:11:37.704Z,77.92
2022-12-16T03:14:43.551Z,77.60
2022-12-16T03:17:47.706Z,77.18
2022-12-16T03:20:56.493Z,77.44
2022-12-16T03:24:01.528Z,77.43
2022-12-16T03:27:09.966Z,77.03
2022-12-16T03:30:14.692Z,76.50
2022-12-16T03:33:21.499Z,76.67
2022-12-16T03:36:26.452Z,76.47
2022-12-16T03:39:30.166Z,76.35
2022-12-16T03:42:32.871Z,76.03
2022-12-16T03:45:38.801Z,76.42
2022-12-16T03:48:47.557Z,75.95
2022-12-16T03:51:51.701Z,75.62
2022-12-16T03:54:55.208Z,75.90
2022-12-16T03:57:58.152Z,75.79
2022-12-16T04:01:00.748Z,76.11
2022-12-16T04:04:03.380Z,75.65
2022-12-16T04:07:22.503Z,76.15
2022-12-16T04:10:39.035Z,76.13
2022-12-16T04:13:58.985Z,75.58
2022-12-16T04:17:19.355Z,75.76
2022-12-16T04:20:46.895Z,76.36
2022-12-16T04:24:11.254Z,76.77
2022-12-16T04:27:25.762Z,76.59
2022-12-16T04:30:29.362Z,76.72
2022-12-16T04:33:49.691Z,77.08
2022-12-16T04:37:10.061Z,75.83
2022-12-16T04:40:31.814Z,76.26
2022-12-16T04:43:52.117Z,76.69
2022-12-16T04:47:12.660Z,76.12
2022-12-16T04:50:33.197Z,75.96
2022-12-16T04:53:53.413Z,75.58
2022-12-16T04:57:14.760Z,76.08
2022-12-16T05:00:34.949Z,75.86
2022-12-16T05:03:54.487Z,76.04
2022-12-16T05:07:14.947Z,75.83
2022-12-16T05:10:35.341Z,74.98
2022-12-16T05:13:57.594Z,75.38
2022-12-16T05:17:17.955Z,75.36
2022-12-16T05:20:38.322Z,75.00
2022-12-16T05:23:58.522Z,74.74
2022-12-16T05:27:19.315Z,74.80
2022-12-16T05:30:40.672Z,75.46
2022-12-16T05:34:01.069Z,76.19
2022-12-16T05:37:21.446Z,76.06
2022-12-16T05:40:41.682Z,76.94
2022-12-16T05:44:02.013Z,76.11
2022-12-16T05:47:23.378Z,76.18
2022-12-16T05:50:43.814Z,75.65
2022-12-16T05:54:04.307Z,75.11
2022-12-16T05:57:24.915Z,75.52
2022-12-16T06:00:45.016Z,75.35
2022-12-16T06:04:06.593Z,75.26
2022-12-16T06:07:26.912Z,75.21
2022-12-16T06:10:47.034Z,75.02
2022-12-16T06:14:07.633Z,74.63
2022-12-16T06:17:27.618Z,74.51
2022-12-16T06:20:49.250Z,74.94
2022-12-16T06:24:09.628Z,74.96
2022-12-16T06:27:29.962Z,75.14
2022-12-16T06:30:50.331Z,74.49
2022-12-16T06:34:10.963Z,73.05
2022-12-16T06:37:32.357Z,72.74
2022-12-16T06:40:52.862Z,72.57
2022-12-16T06:44:16.324Z,73.12
2022-12-16T06:47:36.826Z,72.46
2022-12-16T06:50:57.538Z,72.16
2022-12-16T06:54:19.114Z,71.63
2022-12-16T06:57:40.576Z,71.93
2022-12-16T07:01:00.929Z,71.73
2022-12-16T07:04:21.585Z,71.21
2022-12-16T07:07:43.387Z,71.64
2022-12-16T07:11:16.174Z,70.84
2022-12-16T07:14:37.353Z,70.90
2022-12-16T07:17:58.405Z,71.01
2022-12-16T07:21:18.739Z,70.72
2022-12-16T07:24:38.929Z,70.06
2022-12-16T07:28:04.258Z,70.90
2022-12-16T07:31:24.592Z,70.39
2022-12-16T07:34:48.624Z,70.31
2022-12-16T07:38:10.571Z,69.41
2022-12-16T07:41:31.086Z,69.00
2022-12-16T07:44:52.683Z,68.95
2022-12-16T07:48:12.831Z,67.40
2022-12-16T07:51:33.224Z,67.58
2022-12-16T07:54:53.393Z,67.12
2022-12-16T07:58:16.702Z,67.50
2022-12-16T08:01:38.598Z,67.08
2022-12-16T08:04:58.793Z,65.33
2022-12-16T08:08:18.831Z,64.13
2022-12-16T08:11:39.224Z,64.49
2022-12-16T08:14:59.257Z,64.28
2022-12-16T08:18:21.426Z,62.80
2022-12-16T08:21:41.657Z,62.36
2022-12-16T08:25:01.964Z,61.42
2022-12-16T08:28:22.084Z,60.85
2022-12-16T08:31:42.348Z,60.35
2022-12-16T08:35:03.975Z,59.94
2022-12-16T08:38:24.306Z,60.70
2022-12-16T08:41:44.601Z,61.32
2022-12-16T08:45:04.727Z,62.02
2022-12-16T08:48:25.287Z,60.50
2022-12-16T08:51:46.837Z,60.29
2022-12-16T08:55:09.348Z,60.80
2022-12-16T08:58:29.881Z,60.34
2022-12-16T09:01:50.199Z,60.06
2022-12-16T09:05:11.528Z,59.19
2022-12-16T09:08:33.009Z,60.33
2022-12-16T09:11:53.398Z,59.58
2022-12-16T09:15:13.850Z,59.82
2022-12-16T09:18:34.325Z,57.90
2022-12-16T09:21:54.885Z,56.58
2022-12-16T09:25:16.555Z,57.10
2022-12-16T09:28:36.880Z,56.68
2022-12-16T09:31:57.004Z,57.33
2022-12-16T09:35:17.537Z,56.96
2022-12-16T09:38:37.959Z,55.99
2022-12-16T09:42:02.499Z,56.67
2022-12-16T09:45:27.204Z,54.99
2022-12-16T09:48:50.044Z,55.82
2022-12-16T09:52:12.507Z,55.71
2022-12-16T09:55:42.721Z,56.10
2022-12-16T09:59:08.651Z,54.54
2022-12-16T10:02:34.270Z,54.85
2022-12-16T10:05:58.563Z,54.65
2022-12-16T10:09:24.065Z,54.90
2022-12-16T10:12:50.721Z,54.00
2022-12-16T10:16:20.642Z,53.03
2022-12-16T10:19:52.056Z,51.41
2022-12-16T10:23:16.737Z,51.46
2022-12-16T10:26:41.688Z,52.23
2022-12-16T10:30:03.257Z,52.11
2022-12-16T10:33:28.115Z,52.47
2022-12-16T10:36:48.506Z,51.93
2022-12-16T10:40:15.340Z,51.25
2022-12-16T10:43:38.511Z,52.75
2022-12-16T10:46:58.922Z,53.50
2022-12-16T10:50:20.363Z,52.30
2022-12-16T10:53:44.895Z,52.24
2022-12-16T10:57:11.798Z,52.54
2022-12-16T11:00:34.627Z,52.64
2022-12-16T11:03:56.791Z,51.65
2022-12-16T11:07:18.204Z,51.24
2022-12-16T11:10:49.789Z,52.01
2022-12-16T11:14:27.904Z,53.41
2022-12-16T11:17:48.072Z,53.89
2022-12-16T11:21:23.591Z,51.98
2022-12-16T11:24:45.582Z,50.65
2022-12-16T11:28:17.990Z,50.63
2022-12-16T11:31:38.150Z,49.86
2022-12-16T11:35:08.805Z,50.02
2022-12-16T11:38:34.699Z,49.77
2022-12-16T11:41:58.335Z,47.40
2022-12-16T11:45:20.544Z,47.62
2022-12-16T11:48:44.685Z,50.22
2022-12-16T11:52:35.230Z,50.24
2022-12-16T11:56:12.749Z,48.62
2022-12-16T11:59:41.694Z,48.13
2022-12-16T12:03:06.342Z,48.46
2022-12-16T12:06:32.475Z,46.51
2022-12-16T12:09:56.944Z,46.50
2022-12-16T12:13:17.910Z,45.16
2022-12-16T12:16:45.199Z,46.55
2022-12-16T12:20:12.466Z,45.99
2022-12-16T12:23:39.487Z,46.94
2022-12-16T12:27:04.059Z,48.42
2022-12-16T12:30:26.529Z,48.64
2022-12-16T12:33:52.573Z,49.01
2022-12-16T12:37:17.859Z,49.74
2022-12-16T12:40:52.482Z,49.44
2022-12-16T12:44:18.692Z,49.71
2022-12-16T12:47:41.843Z,49.64
2022-12-16T12:51:10.964Z,49.57
2022-12-16T12:54:37.397Z,51.10
2022-12-16T12:58:05.266Z,52.43
2022-12-16T13:01:25.924Z,52.31
2022-12-16T13:04:47.913Z,52.47
2022-12-16T13:08:09.557Z,52.13
2022-12-16T13:11:35.167Z,53.11
2022-12-16T13:15:16.700Z,50.21
2022-12-16T13:18:45.253Z,50.54
2022-12-16T13:22:05.565Z,50.15
2022-12-16T13:25:49.325Z,50.44
2022-12-16T13:29:25.786Z,51.59
2022-12-16T13:32:45.940Z,53.13
2022-12-16T13:36:13.436Z,52.53
2022-12-16T13:39:42.599Z,53.35
2022-12-16T13:43:13.363Z,53.31
2022-12-16T13:46:35.001Z,53.06
2022-12-16T13:50:04.803Z,52.31
2022-12-16T13:53:37.976Z,51.96
2022-12-16T13:56:59.537Z,52.16
2022-12-16T14:00:23.113Z,52.77
2022-12-16T14:04:08.810Z,53.45
2022-12-16T14:07:30.555Z,53.28
2022-12-16T14:10:53.273Z,55.88
2022-12-16T14:14:17.473Z,54.65
2022-12-16T14:17:42.703Z,53.86
2022-12-16T14:21:07.667Z,53.90
2022-12-16T14:24:32.637Z,54.29
2022-12-16T14:27:53.490Z,53.35
2022-12-16T14:31:22.351Z,53.76
2022-12-16T14:34:46.082Z,55.03
2022-12-16T14:38:06.564Z,55.00
2022-12-16T14:41:30.114Z,54.55
2022-12-16T14:44:50.674Z,54.85
2022-12-16T14:48:11.135Z,55.55
2022-12-16T14:51:42.245Z,55.08
2022-12-16T14:55:02.711Z,56.14
2022-12-16T14:58:25.178Z,54.87
2022-12-16T15:01:45.938Z,55.47
2022-12-16T15:05:06.730Z,55.59
2022-12-16T15:08:29.254Z,55.64
2022-12-16T15:11:49.580Z,55.20
2022-12-16T15:15:10.398Z,54.79
2022-12-16T15:18:40.732Z,54.88
2022-12-16T15:22:01.256Z,55.16
2022-12-16T15:25:23.692Z,55.63
2022-12-16T15:28:56.572Z,55.99
2022-12-16T15:32:31.470Z,56.70
2022-12-16T15:35:55.097Z,56.24
2022-12-16T15:39:15.510Z,56.71
2022-12-16T15:42:39.667Z,56.62
2022-12-16T15:46:15.349Z,56.68
2022-12-16T15:49:38.456Z,56.99
2022-12-16T15:52:59.948Z,56.80
2022-12-16T15:56:31.723Z,56.99
2022-12-16T15:59:54.786Z,56.84
2022-12-16T16:03:15.283Z,57.02
2022-12-16T16:06:37.076Z,57.50
2022-12-16T16:09:58.271Z,57.38
2022-12-16T16:13:18.775Z,57.13
2022-12-16T16:16:40.150Z,57.26
2022-12-16T16:20:03.731Z,57.38
2022-12-16T16:23:24.221Z,56.91
2022-12-16T16:26:45.459Z,57.93
2022-12-16T16:30:05.616Z,57.68
2022-12-16T16:33:27.056Z,58.00
2022-12-16T16:36:47.519Z,58.52
2022-12-16T16:40:07.915Z,57.72
2022-12-16T16:43:29.414Z,58.60
2022-12-16T16:46:51.876Z,58.74
2022-12-16T16:50:19.115Z,58.76
2022-12-16T16:53:39.749Z,58.46
2022-12-16T16:56:59.848Z,58.57
2022-12-16T17:00:19.870Z,58.66
2022-12-16T17:03:41.166Z,59.09
2022-12-16T17:07:08.619Z,58.48
2022-12-16T17:10:29.400Z,59.36
2022-12-16T17:13:49.789Z,59.83
2022-12-16T17:17:09.924Z,59.87
2022-12-16T17:20:33.096Z,60.18
2022-12-16T17:23:54.492Z,60.57
2022-12-16T17:27:14.891Z,60.07
2022-12-16T17:30:40.784Z,60.46
2022-12-16T17:34:05.232Z,60.24
2022-12-16T17:37:25.601Z,60.17
2022-12-16T17:40:47.596Z,61.06
2022-12-16T17:44:11.310Z,61.36
2022-12-16T17:47:31.305Z,61.05
2022-12-16T17:50:51.666Z,60.12
2022-12-16T17:54:19.679Z,60.57
2022-12-16T17:57:44.972Z,60.33
2022-12-16T18:01:16.827Z,60.89
2022-12-16T18:04:37.325Z,60.67
2022-12-16T18:07:57.661Z,60.71
2022-12-16T18:11:18.079Z,61.75
2022-12-16T18:14:39.793Z,61.04
2022-12-16T18:18:00.387Z,61.45
2022-12-16T18:21:27.855Z,60.96
2022-12-16T18:24:48.682Z,60.93
2022-12-16T18:28:09.260Z,61.17
2022-12-16T18:31:31.030Z,61.05
2022-12-16T18:34:51.079Z,61.56
2022-12-16T18:38:16.281Z,61.25
2022-12-16T18:41:39.332Z,62.16
2022-12-16T18:45:01.255Z,61.49
2022-12-16T18:48:23.400Z,60.72
2022-12-16T18:51:43.675Z,61.57
2022-12-16T18:55:03.855Z,61.39
2022-12-16T19:02:04.514Z,61.56
2022-12-16T19:05:26.489Z,62.32
2022-12-16T19:08:47.847Z,62.71
2022-12-16T19:12:07.841Z,62.38
2022-12-16T19:15:28.147Z,62.84
2022-12-16T19:18:48.657Z,62.54
2022-12-16T19:22:10.363Z,62.83
2022-12-16T19:25:30.556Z,63.61
2022-12-16T19:28:51.374Z,63.37
2022-12-16T19:32:12.067Z,63.43
2022-12-16T19:35:32.494Z,63.46
2022-12-16T19:38:54.509Z,63.28
2022-12-16T19:42:16.906Z,63.71
2022-12-16T19:45:37.204Z,63.50
2022-12-16T19:48:58.623Z,64.10
2022-12-16T19:52:18.932Z,64.05
2022-12-16T19:55:40.577Z,64.36
2022-12-16T19:59:02.083Z,64.64
2022-12-16T20:02:37.597Z,63.59
2022-12-16T20:05:57.782Z,64.12
2022-12-16T20:09:18.497Z,63.70
2022-12-16T20:12:40.439Z,63.97
2022-12-16T20:16:00.412Z,64.53
2022-12-16T20:19:21.498Z,64.32
2022-12-16T20:22:42.175Z,64.07
2022-12-16T20:26:02.913Z,64.35
2022-12-16T20:29:24.609Z,64.12
2022-12-16T20:32:44.721Z,63.94
2022-12-16T20:36:14.353Z,64.51
2022-12-16T20:39:34.357Z,64.46
2022-12-16T20:42:56.311Z,64.51
2022-12-16T20:46:17.979Z,65.01
2022-12-16T20:49:38.089Z,64.48
2022-12-16T20:52:58.555Z,64.74
2022-12-16T20:56:19.951Z,64.49
2022-12-16T20:59:40.524Z,64.90
2022-12-16T21:03:01.972Z,64.88
2022-12-16T21:06:22.474Z,64.99
2022-12-16T21:09:43.112Z,64.37
2022-12-16T21:13:11.849Z,64.43
2022-12-16T21:16:32.104Z,64.02
2022-12-16T21:19:53.728Z,64.34
2022-12-16T21:23:18.175Z,64.67
2022-12-16T21:26:38.447Z,64.43
2022-12-16T21:29:59.044Z,64.32
2022-12-16T21:33:19.340Z,64.12
2022-12-16T21:36:41.368Z,64.43
2022-12-16T21:40:01.479Z,64.64
2022-12-16T21:43:21.874Z,64.33
2022-12-16T21:46:44.288Z,64.55
2022-12-16T21:50:04.895Z,64.07
2022-12-16T21:53:26.359Z,64.63
2022-12-16T21:56:46.541Z,64.52
2022-12-16T22:00:07.201Z,65.06
2022-12-16T22:03:27.740Z,66.31
2022-12-16T22:10:30.166Z,68.03
2022-12-16T22:13:50.540Z,68.74
2022-12-16T22:17:10.605Z,69.58
2022-12-16T22:20:31.088Z,70.81
2022-12-16T22:23:51.371Z,71.01
2022-12-16T22:27:13.630Z,71.62
2022-12-16T22:30:34.091Z,71.80
2022-12-16T22:33:54.289Z,72.54
2022-12-16T22:37:16.767Z,73.49
2022-12-16T22:40:37.268Z,73.65
2022-12-16T22:43:58.886Z,72.96
2022-12-16T22:47:18.958Z,72.56
2022-12-16T22:50:39.243Z,73.18
2022-12-16T22:53:59.446Z,73.04
2022-12-16T22:57:19.764Z,73.61
2022-12-16T23:00:41.217Z,73.06
2022-12-16T23:04:01.566Z,73.17
2022-12-16T23:07:27.457Z,74.07
2022-12-16T23:10:47.759Z,73.92
2022-12-16T23:14:08.173Z,73.88
2022-12-16T23:17:29.989Z,74.06
2022-12-16T23:20:50.143Z,74.61
2022-12-16T23:24:22.468Z,74.12
2022-12-16T23:27:42.692Z,75.18
2022-12-16T23:31:03.310Z,75.20
2022-12-16T23:32:31.434Z,67.01
2022-12-16T23:34:25.028Z,75.09
2022-12-16T23:37:45.489Z,75.37
2022-12-16T23:41:05.401Z,75.49
2022-12-16T23:44:25.776Z,76.20
2022-12-16T23:47:46.155Z,76.22
2022-12-16T23:51:07.956Z,75.91
2022-12-16T23:54:28.436Z,75.87
2022-12-16T23:57:49.014Z,75.77
